Wetterdaten: Woche 08.09.03 - 14.09.03 (KW37)
Datum Zeit Temperatur Luftfeuchte Luftdruck Regenmenge Wind Richtung Taupunkt Windchill
08.09.2003 00:00 16.0 C 77 % 1011.7 hPa 0.0 l/m 6.6 km/h (2 Bft) NW 11.9 C 16.0 C
08.09.2003 01:00 15.3 C 78 % 1011.5 hPa 0.0 l/m 0.9 km/h (0 Bft) W-NW 11.5 C 15.3 C
08.09.2003 02:00 15.0 C 82 % 1010.8 hPa 0.0 l/m 3.2 km/h (1 Bft) SO 11.9 C 15.0 C
08.09.2003 03:00 14.4 C 87 % 1010.7 hPa 0.4 l/m 0.0 km/h (0 Bft) N 12.3 C 14.4 C
08.09.2003 04:00 14.5 C 92 % 1010.7 hPa 1.9 l/m 0.1 km/h (0 Bft) N 13.2 C 14.5 C
08.09.2003 05:00 14.4 C 98 % 1010.7 hPa 4.2 l/m 0.3 km/h (0 Bft) NW 14.1 C 14.4 C
08.09.2003 06:00 14.0 C 96 % 1010.7 hPa 2.7 l/m 0.5 km/h (0 Bft) W-NW 13.4 C 14.0 C
08.09.2003 07:00 13.9 C 98 % 1010.7 hPa 1.1 l/m 3.8 km/h (1 Bft) W-NW 13.6 C 13.9 C
08.09.2003 08:00 13.5 C 96 % 1010.7 hPa 0.0 l/m 8.1 km/h (2 Bft) W-NW 13.0 C 13.5 C
08.09.2003 09:00 13.6 C 92 % 1010.7 hPa 0.0 l/m 7.8 km/h (2 Bft) W-NW 12.4 C 13.6 C
08.09.2003 10:00 14.3 C 88 % 1010.7 hPa 0.4 l/m 4.7 km/h (1 Bft) W-NW 12.4 C 14.3 C
08.09.2003 11:00 14.7 C 83 % 1010.7 hPa 0.0 l/m 10.4 km/h (2 Bft) W-NW 11.8 C 14.7 C
08.09.2003 12:00 16.3 C 72 % 1010.5 hPa 0.0 l/m 6.8 km/h (2 Bft) W-NW 11.2 C 16.3 C
08.09.2003 13:00 17.2 C 66 % 1009.7 hPa 0.0 l/m 3.0 km/h (1 Bft) W-NW 10.6 C 17.2 C
08.09.2003 14:00 18.7 C 58 % 1008.7 hPa 0.0 l/m 1.2 km/h (1 Bft) W-NW 10.3 C 18.7 C
08.09.2003 15:00 19.9 C 52 % 1007.6 hPa 0.0 l/m 1.1 km/h (0 Bft) W-NW 9.7 C 19.9 C
08.09.2003 16:00 20.1 C 52 % 1007.6 hPa 0.0 l/m 1.7 km/h (1 Bft) W 9.8 C 20.1 C
08.09.2003 17:00 19.9 C 52 % 1006.5 hPa 0.0 l/m 0.9 km/h (0 Bft) W-NW 9.8 C 19.9 C
08.09.2003 18:00 19.9 C 50 % 1006.5 hPa 0.0 l/m 0.1 km/h (0 Bft) W-NW 9.1 C 19.9 C
08.09.2003 19:00 17.7 C 60 % 1006.5 hPa 0.0 l/m 2.9 km/h (1 Bft) O-SO 9.8 C 17.7 C
08.09.2003 20:00 15.0 C 77 % 1006.0 hPa 0.0 l/m 3.8 km/h (1 Bft) O-SO 11.0 C 15.0 C
08.09.2003 21:00 13.4 C 84 % 1006.3 hPa 0.0 l/m 0.6 km/h (0 Bft) O-SO 10.7 C 13.4 C
08.09.2003 22:00 12.4 C 89 % 1006.2 hPa 0.0 l/m 0.0 km/h (0 Bft) N 10.6 C 12.4 C
08.09.2003 23:00 11.8 C 90 % 1005.5 hPa 0.0 l/m 0.0 km/h (0 Bft) N 10.2 C 11.8 C
09.09.2003 00:00 11.7 C 92 % 1005.5 hPa 0.0 l/m 0.0 km/h (0 Bft) N 10.4 C 11.7 C
09.09.2003 01:00 12.0 C 93 % 1005.5 hPa 0.0 l/m 0.0 km/h (0 Bft) N 10.8 C 12.0 C
09.09.2003 02:00 12.6 C 92 % 1005.1 hPa 0.0 l/m 0.0 km/h (0 Bft) N 11.3 C 12.6 C
09.09.2003 03:00 12.8 C 91 % 1004.5 hPa 0.0 l/m 0.0 km/h (0 Bft) N 11.3 C 12.8 C
09.09.2003 04:00 12.7 C 91 % 1004.5 hPa 0.0 l/m 0.0 km/h (0 Bft) N 11.2 C 12.7 C
09.09.2003 05:00 12.5 C 93 % 1004.5 hPa 0.0 l/m 0.0 km/h (0 Bft) N 11.3 C 12.5 C
09.09.2003 06:00 12.8 C 92 % 1004.8 hPa 0.0 l/m 0.0 km/h (0 Bft) N 11.5 C 12.8 C
09.09.2003 07:00 13.3 C 89 % 1005.5 hPa 0.0 l/m 0.0 km/h (0 Bft) N 11.4 C 13.3 C
09.09.2003 08:00 13.8 C 85 % 1005.6 hPa 0.0 l/m 0.0 km/h (0 Bft) N 11.2 C 13.8 C
09.09.2003 09:00 14.2 C 82 % 1006.5 hPa 0.0 l/m 0.1 km/h (0 Bft) SW 11.2 C 14.2 C
09.09.2003 10:00 15.6 C 76 % 1006.5 hPa 0.0 l/m 1.9 km/h (1 Bft) O-SO 11.3 C 15.6 C
09.09.2003 11:00 17.2 C 70 % 1006.5 hPa 0.0 l/m 7.7 km/h (2 Bft) O-SO 11.6 C 17.2 C
09.09.2003 12:00 18.1 C 67 % 1007.3 hPa 0.0 l/m 3.7 km/h (1 Bft) O-SO 11.7 C 18.1 C
09.09.2003 13:00 18.7 C 64 % 1007.6 hPa 0.0 l/m 1.8 km/h (1 Bft) N-NO 11.6 C 18.7 C
09.09.2003 14:00 19.0 C 60 % 1007.7 hPa 0.0 l/m 2.5 km/h (1 Bft) O-SO 11.1 C 19.0 C
09.09.2003 15:00 20.3 C 58 % 1008.6 hPa 0.0 l/m 6.3 km/h (2 Bft) O-SO 11.6 C 20.3 C
09.09.2003 16:00 19.4 C 61 % 1008.6 hPa 0.0 l/m 1.2 km/h (1 Bft) O-SO 11.6 C 19.4 C
09.09.2003 17:00 18.6 C 68 % 1008.6 hPa 0.0 l/m 0.3 km/h (0 Bft) SO 12.5 C 18.6 C
09.09.2003 18:00 18.2 C 70 % 1009.7 hPa 0.0 l/m 1.2 km/h (1 Bft) W-NW 12.7 C 18.2 C
09.09.2003 19:00 16.5 C 78 % 1010.1 hPa 0.0 l/m 0.0 km/h (0 Bft) N 12.6 C 16.5 C
09.09.2003 20:00 14.8 C 85 % 1011.2 hPa 0.0 l/m 0.0 km/h (0 Bft) N 12.3 C 14.8 C
09.09.2003 21:00 13.6 C 90 % 1012.5 hPa 0.0 l/m 2.0 km/h (1 Bft) O-SO 11.9 C 13.6 C
09.09.2003 22:00 14.0 C 92 % 1013.4 hPa 0.0 l/m 3.3 km/h (1 Bft) O-SO 12.7 C 14.0 C
09.09.2003 23:00 13.6 C 91 % 1013.9 hPa 0.0 l/m 0.3 km/h (0 Bft) O-SO 12.2 C 13.6 C
10.09.2003 00:00 13.4 C 92 % 1014.8 hPa 0.0 l/m 1.2 km/h (1 Bft) O-SO 12.2 C 13.4 C
10.09.2003 01:00 13.3 C 92 % 1014.8 hPa 0.0 l/m 0.1 km/h (0 Bft) S-SW 12.0 C 13.3 C
10.09.2003 02:00 12.9 C 92 % 1014.8 hPa 0.0 l/m 0.9 km/h (0 Bft) W-NW 11.7 C 12.9 C
10.09.2003 03:00 12.9 C 93 % 1015.7 hPa 0.0 l/m 0.3 km/h (0 Bft) SO 11.8 C 12.9 C
10.09.2003 04:00 13.0 C 93 % 1015.9 hPa 0.0 l/m 0.2 km/h (0 Bft) N 11.9 C 13.0 C
10.09.2003 05:00 12.8 C 92 % 1015.9 hPa 0.0 l/m 0.3 km/h (0 Bft) SO 11.6 C 12.8 C
10.09.2003 06:00 12.6 C 94 % 1015.9 hPa 0.0 l/m 0.3 km/h (0 Bft) SO 11.5 C 12.6 C
10.09.2003 07:00 13.1 C 93 % 1016.7 hPa 0.0 l/m 1.0 km/h (0 Bft) SO 12.1 C 13.1 C
10.09.2003 08:00 14.3 C 83 % 1016.9 hPa 0.0 l/m 0.1 km/h (0 Bft) N 11.4 C 14.3 C
10.09.2003 09:00 14.9 C 74 % 1017.6 hPa 0.0 l/m 6.1 km/h (2 Bft) W-NW 10.3 C 14.9 C
10.09.2003 10:00 15.4 C 71 % 1018.0 hPa 0.0 l/m 10.9 km/h (2 Bft) W-NW 10.1 C 15.4 C
10.09.2003 11:00 15.9 C 68 % 1018.0 hPa 0.0 l/m 12.4 km/h (3 Bft) W-NW 10.1 C 15.9 C
10.09.2003 12:00 16.3 C 63 % 1018.0 hPa 0.0 l/m 24.1 km/h (4 Bft) NW 9.2 C 16.3 C
10.09.2003 13:00 17.2 C 53 % 1017.1 hPa 0.0 l/m 30.6 km/h (5 Bft) NW 7.5 C 17.2 C
10.09.2003 14:00 18.3 C 46 % 1017.2 hPa 0.0 l/m 31.6 km/h (5 Bft) NW 6.4 C 18.3 C
10.09.2003 15:00 18.4 C 45 % 1016.9 hPa 0.0 l/m 25.9 km/h (4 Bft) W-NW 6.3 C 18.4 C
10.09.2003 16:00 18.2 C 43 % 1016.5 hPa 0.0 l/m 24.2 km/h (4 Bft) NW 5.4 C 18.2 C
10.09.2003 17:00 17.9 C 44 % 1015.9 hPa 0.0 l/m 27.4 km/h (4 Bft) W-NW 5.6 C 17.9 C
10.09.2003 18:00 16.8 C 52 % 1015.9 hPa 0.0 l/m 13.1 km/h (3 Bft) W-NW 6.9 C 16.8 C
10.09.2003 19:00 15.8 C 59 % 1016.1 hPa 0.0 l/m 7.7 km/h (2 Bft) W-NW 7.8 C 15.8 C
10.09.2003 20:00 13.5 C 83 % 1016.9 hPa 0.4 l/m 1.4 km/h (1 Bft) W-NW 10.7 C 13.5 C
10.09.2003 21:00 14.1 C 78 % 1016.9 hPa 0.0 l/m 11.5 km/h (2 Bft) W-NW 10.2 C 14.1 C
10.09.2003 22:00 14.4 C 74 % 1016.8 hPa 0.0 l/m 4.9 km/h (1 Bft) W-NW 9.8 C 14.4 C
10.09.2003 23:00 13.4 C 83 % 1016.7 hPa 1.1 l/m 2.3 km/h (1 Bft) SO 10.6 C 13.4 C
11.09.2003 00:00 13.1 C 93 % 1015.9 hPa 0.0 l/m 2.8 km/h (1 Bft) SO 12.0 C 13.1 C
11.09.2003 01:00 13.0 C 96 % 1015.9 hPa 1.1 l/m 2.7 km/h (1 Bft) W-NW 12.4 C 13.0 C
11.09.2003 02:00 12.9 C 95 % 1015.7 hPa 0.0 l/m 2.1 km/h (1 Bft) NW 12.1 C 12.9 C
11.09.2003 03:00 13.1 C 98 % 1015.3 hPa 2.3 l/m 2.2 km/h (1 Bft) W-NW 12.8 C 13.1 C
11.09.2003 04:00 13.1 C 95 % 1015.5 hPa 1.1 l/m 3.8 km/h (1 Bft) W-NW 12.4 C 13.1 C
11.09.2003 05:00 13.3 C 95 % 1014.8 hPa 0.0 l/m 11.5 km/h (2 Bft) NW 12.5 C 13.3 C
11.09.2003 06:00 13.3 C 93 % 1014.9 hPa 0.4 l/m 21.3 km/h (4 Bft) NW 12.3 C 13.3 C
11.09.2003 07:00 13.3 C 90 % 1014.9 hPa 0.0 l/m 23.8 km/h (4 Bft) NW 11.6 C 13.3 C
11.09.2003 08:00 13.0 C 91 % 1015.9 hPa 5.7 l/m 23.9 km/h (4 Bft) NW 11.5 C 13.0 C
11.09.2003 09:00 12.2 C 94 % 1017.3 hPa 2.7 l/m 1.8 km/h (1 Bft) O-SO 11.2 C 12.2 C
11.09.2003 10:00 13.0 C 99 % 1018.0 hPa 0.0 l/m 3.4 km/h (1 Bft) O-SO 12.8 C 13.0 C
11.09.2003 11:00 14.4 C 77 % 1018.9 hPa 0.0 l/m 14.2 km/h (3 Bft) W-NW 10.3 C 14.4 C
11.09.2003 12:00 16.1 C 56 % 1019.0 hPa 0.0 l/m 15.0 km/h (3 Bft) W-NW 7.2 C 16.1 C
11.09.2003 13:00 17.5 C 47 % 1019.0 hPa 0.0 l/m 9.3 km/h (2 Bft) W-NW 6.1 C 17.5 C
11.09.2003 14:00 18.7 C 43 % 1019.4 hPa 0.0 l/m 8.6 km/h (2 Bft) W-NW 6.0 C 18.7 C
11.09.2003 15:00 19.2 C 39 % 1019.7 hPa 0.0 l/m 11.2 km/h (2 Bft) W-NW 4.8 C 19.2 C
11.09.2003 16:00 18.7 C 41 % 1019.9 hPa 0.0 l/m 24.6 km/h (4 Bft) NW 5.0 C 18.7 C
11.09.2003 17:00 17.2 C 45 % 1020.0 hPa 0.0 l/m 22.5 km/h (4 Bft) W-NW 5.3 C 17.2 C
11.09.2003 18:00 17.3 C 48 % 1020.0 hPa 0.0 l/m 12.3 km/h (3 Bft) W-NW 6.1 C 17.3 C
11.09.2003 19:00 16.2 C 53 % 1020.0 hPa 0.0 l/m 6.0 km/h (2 Bft) W-NW 6.6 C 16.2 C
11.09.2003 20:00 15.2 C 57 % 1020.9 hPa 0.0 l/m 8.5 km/h (2 Bft) W-NW 6.6 C 15.2 C
11.09.2003 21:00 14.5 C 61 % 1022.0 hPa 0.0 l/m 9.7 km/h (2 Bft) W-NW 7.0 C 14.5 C
11.09.2003 22:00 14.2 C 60 % 1022.1 hPa 0.0 l/m 8.4 km/h (2 Bft) W-NW 6.6 C 14.2 C
11.09.2003 23:00 12.9 C 67 % 1022.5 hPa 0.0 l/m 0.1 km/h (0 Bft) N 7.0 C 12.9 C
12.09.2003 00:00 11.4 C 76 % 1023.1 hPa 0.0 l/m 0.4 km/h (0 Bft) O 7.2 C 11.4 C
12.09.2003 01:00 10.7 C 80 % 1023.1 hPa 0.0 l/m 3.3 km/h (1 Bft) O-SO 7.3 C 10.7 C
12.09.2003 02:00 9.6 C 84 % 1023.7 hPa 0.0 l/m 0.1 km/h (0 Bft) N 7.0 C 9.6 C
12.09.2003 03:00 10.1 C 85 % 1024.2 hPa 0.0 l/m 0.0 km/h (0 Bft) N 7.7 C 10.1 C
12.09.2003 04:00 9.3 C 87 % 1024.2 hPa 0.0 l/m 0.0 km/h (0 Bft) N 7.2 C 9.3 C
12.09.2003 05:00 8.4 C 91 % 1024.2 hPa 0.0 l/m 0.5 km/h (0 Bft) SO 6.9 C 8.4 C
12.09.2003 06:00 7.5 C 93 % 1024.6 hPa 0.0 l/m 0.4 km/h (0 Bft) SO 6.4 C 7.5 C
12.09.2003 07:00 7.5 C 95 % 1025.2 hPa 0.0 l/m 1.8 km/h (1 Bft) SO 6.7 C 7.3 C
12.09.2003 08:00 9.2 C 97 % 1025.7 hPa 0.0 l/m 1.4 km/h (1 Bft) O-SO 8.8 C 9.2 C
12.09.2003 09:00 11.4 C 85 % 1026.3 hPa 0.0 l/m 3.7 km/h (1 Bft) O-SO 9.0 C 11.4 C
12.09.2003 10:00 14.4 C 67 % 1026.3 hPa 0.0 l/m 6.1 km/h (2 Bft) O-SO 8.4 C 14.4 C
12.09.2003 11:00 16.3 C 51 % 1026.3 hPa 0.0 l/m 17.4 km/h (3 Bft) W-NW 6.2 C 16.3 C
12.09.2003 12:00 17.5 C 45 % 1026.3 hPa 0.0 l/m 16.1 km/h (3 Bft) W-NW 5.6 C 17.5 C
12.09.2003 13:00 18.3 C 42 % 1026.3 hPa 0.0 l/m 15.8 km/h (3 Bft) W-NW 5.0 C 18.3 C
12.09.2003 14:00 19.5 C 38 % 1026.3 hPa 0.0 l/m 12.6 km/h (3 Bft) W-NW 4.9 C 19.5 C
12.09.2003 15:00 19.6 C 38 % 1026.3 hPa 0.0 l/m 11.9 km/h (2 Bft) W-NW 5.1 C 19.6 C
12.09.2003 16:00 21.0 C 35 % 1026.2 hPa 0.0 l/m 11.7 km/h (2 Bft) W-NW 5.1 C 21.0 C
12.09.2003 17:00 19.5 C 40 % 1025.9 hPa 0.0 l/m 9.3 km/h (2 Bft) W-NW 5.5 C 19.5 C
12.09.2003 18:00 19.3 C 40 % 1026.3 hPa 0.0 l/m 2.3 km/h (1 Bft) W-NW 5.5 C 19.3 C
12.09.2003 19:00 16.3 C 55 % 1026.3 hPa 0.0 l/m 1.5 km/h (1 Bft) O-SO 7.1 C 16.3 C
12.09.2003 20:00 14.1 C 70 % 1027.2 hPa 0.0 l/m 3.8 km/h (1 Bft) O-SO 8.7 C 14.1 C
12.09.2003 21:00 12.8 C 75 % 1027.3 hPa 0.0 l/m 1.7 km/h (1 Bft) O-SO 8.6 C 12.8 C
12.09.2003 22:00 11.8 C 79 % 1027.8 hPa 0.0 l/m 0.7 km/h (0 Bft) O-SO 8.2 C 11.8 C
12.09.2003 23:00 11.6 C 81 % 1028.3 hPa 0.0 l/m 2.5 km/h (1 Bft) O-SO 8.5 C 11.6 C
13.09.2003 00:00 12.0 C 78 % 1028.3 hPa 0.0 l/m 2.4 km/h (1 Bft) O-SO 8.3 C 12.0 C
13.09.2003 01:00 11.2 C 81 % 1028.3 hPa 0.0 l/m 0.0 km/h (0 Bft) N 8.0 C 11.2 C
13.09.2003 02:00 10.5 C 86 % 1028.3 hPa 0.0 l/m 0.8 km/h (0 Bft) O-SO 8.3 C 10.5 C
13.09.2003 03:00 10.3 C 87 % 1028.3 hPa 0.0 l/m 0.0 km/h (0 Bft) N 8.3 C 10.3 C
13.09.2003 04:00 9.6 C 89 % 1028.3 hPa 0.0 l/m 0.0 km/h (0 Bft) N 7.9 C 9.6 C
13.09.2003 05:00 9.3 C 92 % 1028.2 hPa 0.0 l/m 0.0 km/h (0 Bft) N 8.1 C 9.3 C
13.09.2003 06:00 8.7 C 92 % 1028.1 hPa 0.0 l/m 0.0 km/h (0 Bft) N 7.5 C 8.7 C
13.09.2003 07:00 9.2 C 94 % 1028.2 hPa 0.0 l/m 0.0 km/h (0 Bft) N 8.3 C 9.2 C
13.09.2003 08:00 10.6 C 91 % 1028.3 hPa 0.0 l/m 0.0 km/h (0 Bft) N 9.1 C 10.6 C
13.09.2003 09:00 12.6 C 77 % 1028.3 hPa 0.0 l/m 1.3 km/h (1 Bft) NW 8.5 C 12.6 C
13.09.2003 10:00 15.5 C 64 % 1028.3 hPa 0.0 l/m 3.0 km/h (1 Bft) O-SO 8.7 C 15.5 C
13.09.2003 11:00 17.5 C 57 % 1028.3 hPa 0.0 l/m 5.3 km/h (1 Bft) O-SO 9.0 C 17.5 C
13.09.2003 12:00 18.9 C 53 % 1027.7 hPa 0.0 l/m 7.3 km/h (2 Bft) O-SO 9.0 C 18.9 C
13.09.2003 13:00 19.3 C 49 % 1027.3 hPa 0.0 l/m 3.0 km/h (1 Bft) O 8.2 C 19.3 C
13.09.2003 14:00 19.8 C 47 % 1027.2 hPa 0.0 l/m 4.3 km/h (1 Bft) O-SO 8.2 C 19.8 C
13.09.2003 15:00 20.2 C 46 % 1026.4 hPa 0.0 l/m 2.6 km/h (1 Bft) O-SO 8.1 C 20.2 C
13.09.2003 16:00 21.3 C 41 % 1026.3 hPa 0.0 l/m 5.4 km/h (1 Bft) O-SO 7.3 C 21.3 C
13.09.2003 17:00 21.4 C 39 % 1025.8 hPa 0.0 l/m 7.7 km/h (2 Bft) O-SO 6.6 C 21.4 C
13.09.2003 18:00 18.1 C 52 % 1025.2 hPa 0.0 l/m 4.3 km/h (1 Bft) O-SO 7.9 C 18.1 C
13.09.2003 19:00 16.3 C 58 % 1025.6 hPa 0.0 l/m 0.6 km/h (0 Bft) O-SO 8.1 C 16.3 C
13.09.2003 20:00 15.6 C 60 % 1026.8 hPa 0.0 l/m 18.0 km/h (3 Bft) O-SO 7.9 C 15.6 C
13.09.2003 21:00 14.6 C 62 % 1028.0 hPa 0.0 l/m 10.9 km/h (2 Bft) O-SO 7.5 C 14.6 C
13.09.2003 22:00 13.1 C 60 % 1028.3 hPa 0.0 l/m 1.0 km/h (0 Bft) NO 5.5 C 13.1 C
13.09.2003 23:00 10.8 C 73 % 1028.3 hPa 0.0 l/m 0.3 km/h (0 Bft) O-SO 6.2 C 10.8 C
14.09.2003 00:00 10.3 C 78 % 1028.3 hPa 0.0 l/m 1.3 km/h (1 Bft) O-SO 6.7 C 10.3 C
14.09.2003 01:00 11.0 C 74 % 1028.3 hPa 0.0 l/m 1.3 km/h (1 Bft) O-SO 6.6 C 11.0 C
14.09.2003 02:00 9.6 C 80 % 1028.2 hPa 0.0 l/m 0.1 km/h (0 Bft) N 6.4 C 9.6 C
14.09.2003 03:00 9.3 C 86 % 1027.3 hPa 0.0 l/m 0.1 km/h (0 Bft) N 7.0 C 9.3 C
14.09.2003 04:00 9.3 C 81 % 1027.2 hPa 0.0 l/m 0.2 km/h (0 Bft) N-NO 6.2 C 9.3 C
14.09.2003 05:00 9.8 C 75 % 1026.9 hPa 0.0 l/m 0.6 km/h (0 Bft) O 5.5 C 9.8 C
14.09.2003 06:00 8.6 C 79 % 1027.2 hPa 0.0 l/m 0.9 km/h (0 Bft) O-SO 5.1 C 8.6 C
14.09.2003 07:00 8.8 C 81 % 1027.3 hPa 0.0 l/m 0.1 km/h (0 Bft) N 5.7 C 8.8 C
14.09.2003 08:00 11.0 C 70 % 1027.3 hPa 0.0 l/m 1.4 km/h (1 Bft) O 5.6 C 11.0 C
14.09.2003 09:00 12.6 C 65 % 1027.3 hPa 0.0 l/m 4.8 km/h (1 Bft) O 6.1 C 12.6 C
14.09.2003 10:00 14.4 C 59 % 1027.3 hPa 0.0 l/m 10.0 km/h (2 Bft) O 6.6 C 14.4 C
14.09.2003 11:00 16.3 C 55 % 1027.3 hPa 0.0 l/m 10.7 km/h (2 Bft) O-SO 7.2 C 16.3 C
14.09.2003 12:00 18.4 C 47 % 1026.9 hPa 0.0 l/m 19.4 km/h (3 Bft) O 6.9 C 18.4 C
14.09.2003 13:00 20.3 C 42 % 1026.6 hPa 0.0 l/m 18.3 km/h (3 Bft) O-SO 6.9 C 20.3 C
14.09.2003 14:00 21.3 C 32 % 1026.3 hPa 0.0 l/m 40.0 km/h (6 Bft) O-SO 3.8 C 21.3 C
14.09.2003 15:00 21.4 C 35 % 1026.3 hPa 0.0 l/m 32.5 km/h (5 Bft) O-SO 5.2 C 21.4 C
14.09.2003 16:00 20.1 C 41 % 1026.3 hPa 0.0 l/m 30.6 km/h (5 Bft) O-SO 6.4 C 20.1 C
14.09.2003 17:00 20.0 C 41 % 1025.3 hPa 0.0 l/m 18.7 km/h (3 Bft) O-SO 6.2 C 20.0 C
14.09.2003 18:00 18.9 C 41 % 1025.2 hPa 0.0 l/m 14.0 km/h (3 Bft) O-SO 5.5 C 18.9 C
14.09.2003 19:00 17.0 C 47 % 1025.2 hPa 0.0 l/m 4.2 km/h (1 Bft) O-SO 5.7 C 17.0 C
14.09.2003 20:00 15.6 C 52 % 1025.2 hPa 0.0 l/m 0.7 km/h (0 Bft) O-SO 5.7 C 15.6 C
14.09.2003 21:00 14.7 C 56 % 1025.9 hPa 0.0 l/m 0.6 km/h (0 Bft) O-NO 6.0 C 14.7 C
14.09.2003 22:00 13.8 C 60 % 1026.3 hPa 0.0 l/m 1.0 km/h (0 Bft) O-SO 6.1 C 13.8 C
14.09.2003 23:00 13.4 C 61 % 1025.7 hPa 0.0 l/m 0.4 km/h (0 Bft) O-NO 6.1 C 13.4 C
Min-Datum _ 12.09.03 14.09.03 09.09.03 - 08.09.03 - 14.09.03 12.09.03
_ Min-Zeit 07:05 14:20 01:50 - 00:14 - 14:20 07:22
Minimum _ 6.9 C 31 % 1004.5 hPa - 0.0 km/h (0 Bft) - 3.1 C 6.0 C
Max-Datum _ 13.09.03 08.09.03 12.09.03 11.09.03 14.09.03 - 08.09.03 13.09.03
_ Max-Zeit 16:56 05:44 22:05 08:19 14:20 - 05:44 16:56
Maximum _ 22.3 C 100 % 1028.3 hPa 5.7 l/m 54.2 km/h
O-SO (7 Bft)
- 14.4 C 22.3 C
Durchschnitt _ 14.7 C 71 % 1018.8 hPa #25.6 l/m 6.0 km/h (2 Bft) W-NW 9.0 C 14.7 C

Durchschnitt Minimum Temp.14.0 C
Durchschnitt Maximum Temp.15.5 C
© Kaiko 2003